createdAt,value
2023-05-08T00:00:14.667Z,14.98
2023-05-08T00:02:43.392Z,20.02
2023-05-08T00:05:11.241Z,92.32
2023-05-08T00:07:38.908Z,23.98
2023-05-08T00:10:07.985Z,39.50
2023-05-08T00:12:35.798Z,13.40
2023-05-08T00:15:06.396Z,27.42
2023-05-08T00:17:34.318Z,22.65
2023-05-08T00:20:02.877Z,16.15
2023-05-08T00:22:30.580Z,11.80
2023-05-08T00:24:58.305Z,11.07
2023-05-08T00:27:26.087Z,10.52
2023-05-08T00:29:53.836Z,9.77
2023-05-08T00:32:23.244Z,10.32
2023-05-08T00:34:51.324Z,10.23
2023-05-08T00:37:19.038Z,11.13
2023-05-08T00:39:46.813Z,9.05
2023-05-08T00:42:14.564Z,9.65
2023-05-08T00:44:42.483Z,11.85
2023-05-08T00:47:10.355Z,9.70
2023-05-08T00:49:39.918Z,10.60
2023-05-08T00:52:08.928Z,10.85
2023-05-08T00:54:37.282Z,9.88
2023-05-08T00:57:07.455Z,11.02
2023-05-08T00:59:37.135Z,9.80
2023-05-08T01:02:05.057Z,10.68
2023-05-08T01:04:33.672Z,10.25
2023-05-08T01:07:03.605Z,10.75
2023-05-08T01:09:31.571Z,10.20
2023-05-08T01:12:08.881Z,9.87
2023-05-08T01:15:02.236Z,9.18
2023-05-08T01:17:39.439Z,8.88
2023-05-08T01:20:19.964Z,9.98
2023-05-08T01:23:27.778Z,10.88
2023-05-08T01:26:16.362Z,10.37
2023-05-08T01:29:25.436Z,11.38
2023-05-08T01:32:13.024Z,13.63
2023-05-08T01:34:47.522Z,13.25
2023-05-08T01:37:21.169Z,12.57
2023-05-08T01:39:58.029Z,11.97
2023-05-08T01:42:32.154Z,10.98
2023-05-08T01:45:03.843Z,9.93
2023-05-08T01:47:37.281Z,9.50
2023-05-08T01:50:15.203Z,10.20
2023-05-08T01:52:46.332Z,10.50
2023-05-08T01:55:19.264Z,9.45
2023-05-08T01:57:50.146Z,10.73
2023-05-08T02:00:21.969Z,9.82
2023-05-08T02:02:53.451Z,19.33
2023-05-08T02:05:23.578Z,26.23
2023-05-08T02:07:53.287Z,39.38
2023-05-08T02:10:22.161Z,11.05
2023-05-08T02:12:51.281Z,10.25
2023-05-08T02:15:21.082Z,28.40
2023-05-08T02:17:55.151Z,10.33
2023-05-08T02:20:23.528Z,16.27
2023-05-08T02:22:52.673Z,16.52
2023-05-08T02:25:20.999Z,11.35
2023-05-08T02:27:50.555Z,13.13
2023-05-08T02:30:18.944Z,19.90
2023-05-08T02:32:48.696Z,13.95
2023-05-08T02:35:19.533Z,13.50
2023-05-08T02:37:52.522Z,14.70
2023-05-08T02:40:22.639Z,15.70
2023-05-08T02:42:51.232Z,14.50
2023-05-08T02:45:19.743Z,15.82
2023-05-08T02:47:53.854Z,14.45
2023-05-08T02:50:32.681Z,18.00
2023-05-08T02:53:05.125Z,26.00
2023-05-08T02:55:40.237Z,16.10
2023-05-08T02:58:18.749Z,36.75
2023-05-08T03:00:50.694Z,19.08
2023-05-08T03:03:23.866Z,19.23
2023-05-08T03:05:57.489Z,15.65
2023-05-08T03:08:30.731Z,16.90
2023-05-08T03:11:02.313Z,14.70
2023-05-08T03:13:33.296Z,18.38
2023-05-08T03:16:02.322Z,32.58
2023-05-08T03:18:33.700Z,18.17
2023-05-08T03:21:03.557Z,15.93
2023-05-08T03:23:34.992Z,15.55
2023-05-08T03:26:04.381Z,14.40
2023-05-08T03:28:33.707Z,13.30
2023-05-08T03:31:02.824Z,15.23
2023-05-08T03:33:31.517Z,18.53
2023-05-08T03:36:02.068Z,16.60
2023-05-08T03:38:30.270Z,15.88
2023-05-08T03:40:59.724Z,22.38
2023-05-08T03:43:29.087Z,15.93
2023-05-08T03:45:58.282Z,17.50
2023-05-08T03:48:27.034Z,17.25
2023-05-08T03:50:56.118Z,17.63
2023-05-08T03:53:25.826Z,20.52
2023-05-08T03:55:53.654Z,22.83
2023-05-08T03:58:27.454Z,22.83
2023-05-08T04:01:05.255Z,35.97
2023-05-08T04:03:44.564Z,29.17
2023-05-08T04:06:17.738Z,26.08
2023-05-08T04:08:54.766Z,21.80
2023-05-08T04:11:29.089Z,23.53
2023-05-08T04:14:03.031Z,23.27
2023-05-08T04:16:37.168Z,24.77
2023-05-08T04:19:11.878Z,25.00
2023-05-08T04:21:43.906Z,23.13
2023-05-08T04:24:15.809Z,23.50
2023-05-08T04:26:47.057Z,22.83
2023-05-08T04:29:17.570Z,20.85
2023-05-08T04:31:46.468Z,23.67
2023-05-08T04:34:15.113Z,20.25
2023-05-08T04:36:43.571Z,20.43
2023-05-08T04:39:12.670Z,18.05
2023-05-08T04:41:40.812Z,24.23
2023-05-08T04:44:08.629Z,25.85
2023-05-08T04:46:36.556Z,23.73
2023-05-08T04:49:04.817Z,24.93
2023-05-08T04:51:33.435Z,25.33
2023-05-08T04:54:02.264Z,27.20
2023-05-08T04:56:31.840Z,26.38
2023-05-08T04:59:00.864Z,28.38
2023-05-08T05:01:28.942Z,25.57
2023-05-08T05:03:56.851Z,25.52
2023-05-08T05:06:24.767Z,24.88
2023-05-08T05:08:52.698Z,21.08
2023-05-08T05:11:21.407Z,22.75
2023-05-08T05:13:50.724Z,23.00
2023-05-08T05:16:18.784Z,22.40
2023-05-08T05:18:47.127Z,24.90
2023-05-08T05:21:15.052Z,23.98
2023-05-08T05:23:43.004Z,22.48
2023-05-08T05:26:10.785Z,23.83
2023-05-08T05:28:39.176Z,22.13
2023-05-08T05:31:08.776Z,23.42
2023-05-08T05:33:36.873Z,21.15
2023-05-08T05:36:04.949Z,21.48
2023-05-08T05:38:32.754Z,23.00
2023-05-08T05:41:00.670Z,18.70
2023-05-08T05:43:28.865Z,17.17
2023-05-08T05:45:57.362Z,15.27
2023-05-08T05:48:26.714Z,14.55
2023-05-08T05:50:54.527Z,16.67
2023-05-08T05:53:22.657Z,17.73
2023-05-08T05:55:50.499Z,18.08
2023-05-08T05:58:18.753Z,15.23
2023-05-08T06:00:47.520Z,17.40
2023-05-08T06:03:15.695Z,16.93
2023-05-08T06:05:47.431Z,18.10
2023-05-08T06:08:16.455Z,17.02
2023-05-08T06:10:44.187Z,19.80
2023-05-08T06:13:12.815Z,21.02
2023-05-08T06:15:41.941Z,22.63
2023-05-08T06:18:09.927Z,21.77
2023-05-08T06:20:38.601Z,21.00
2023-05-08T06:23:08.487Z,21.95
2023-05-08T06:25:36.269Z,22.85
2023-05-08T06:28:06.510Z,22.27
2023-05-08T06:30:34.262Z,22.48
2023-05-08T06:33:02.164Z,23.55
2023-05-08T06:35:29.892Z,23.15
2023-05-08T06:37:57.557Z,22.40
2023-05-08T06:40:26.679Z,23.20
2023-05-08T06:42:54.393Z,22.02
2023-05-08T06:45:22.397Z,24.67
2023-05-08T06:47:50.183Z,23.40
2023-05-08T06:50:17.936Z,21.77
2023-05-08T06:52:45.790Z,24.83
2023-05-08T06:55:13.643Z,27.92
2023-05-08T06:57:42.934Z,24.77
2023-05-08T07:00:12.162Z,25.33
2023-05-08T07:02:40.002Z,26.38
2023-05-08T07:05:08.684Z,26.87
2023-05-08T07:07:36.452Z,27.50
2023-05-08T07:10:05.391Z,26.63
2023-05-08T07:12:34.285Z,25.00
2023-05-08T07:15:14.062Z,26.67
2023-05-08T07:17:51.588Z,31.97
2023-05-08T07:20:19.356Z,28.67
2023-05-08T07:22:47.432Z,31.65
2023-05-08T07:25:15.294Z,29.13
2023-05-08T07:27:43.612Z,30.80
2023-05-08T07:30:13.169Z,31.23
2023-05-08T07:32:41.265Z,31.00
2023-05-08T07:35:12.068Z,33.17
2023-05-08T07:37:40.347Z,32.47
2023-05-08T07:40:09.418Z,35.90
2023-05-08T07:42:42.040Z,32.93
2023-05-08T07:45:13.388Z,32.65
2023-05-08T07:47:50.568Z,35.63
2023-05-08T07:50:18.559Z,36.10
2023-05-08T07:52:47.933Z,35.78
2023-05-08T07:55:17.003Z,34.40
2023-05-08T07:57:45.403Z,40.25
2023-05-08T08:00:16.687Z,38.60
2023-05-08T08:02:45.464Z,38.63
2023-05-08T08:05:13.696Z,38.78
2023-05-08T08:07:41.669Z,36.17
2023-05-08T08:10:10.100Z,37.72
2023-05-08T08:12:38.099Z,36.80
2023-05-08T08:15:06.845Z,38.05
2023-05-08T08:17:36.505Z,37.35
2023-05-08T08:20:04.570Z,38.53
2023-05-08T08:22:32.366Z,37.30
2023-05-08T08:25:00.160Z,39.33
2023-05-08T08:27:28.169Z,38.33
2023-05-08T08:30:08.349Z,37.80
2023-05-08T08:32:44.688Z,38.13
2023-05-08T08:35:13.104Z,38.00
2023-05-08T08:37:41.382Z,38.60
2023-05-08T08:40:10.025Z,38.75
2023-05-08T08:42:37.853Z,38.55
2023-05-08T08:45:06.982Z,39.63
2023-05-08T08:47:37.634Z,40.65
2023-05-08T08:50:11.963Z,39.47
2023-05-08T08:52:47.514Z,45.38
2023-05-08T08:55:17.756Z,48.83
2023-05-08T08:57:53.717Z,50.17
2023-05-08T09:00:23.578Z,51.28
2023-05-08T09:02:51.719Z,55.35
2023-05-08T09:05:23.523Z,59.72
2023-05-08T09:07:52.245Z,60.30
2023-05-08T09:10:20.038Z,60.90
2023-05-08T09:12:49.227Z,61.97
2023-05-08T09:15:17.055Z,61.78
2023-05-08T09:17:45.132Z,68.00
2023-05-08T09:20:16.183Z,63.10
2023-05-08T09:22:45.472Z,62.70
2023-05-08T09:25:13.417Z,67.28
2023-05-08T09:27:41.528Z,75.00
2023-05-08T09:30:10.654Z,76.70
2023-05-08T09:32:40.051Z,75.32
2023-05-08T09:35:09.890Z,71.17
2023-05-08T09:37:40.167Z,70.88
2023-05-08T09:40:16.964Z,72.35
2023-05-08T09:42:45.090Z,73.88
2023-05-08T09:45:13.298Z,74.60
2023-05-08T09:47:49.414Z,68.43
2023-05-08T09:50:17.126Z,70.63
2023-05-08T09:52:47.870Z,68.35
2023-05-08T09:55:17.409Z,72.70
2023-05-08T09:57:54.238Z,72.97
2023-05-08T10:00:23.129Z,74.77
2023-05-08T10:02:59.201Z,77.07
2023-05-08T10:05:31.252Z,77.85
2023-05-08T10:08:00.710Z,81.10
2023-05-08T10:10:31.290Z,82.85
2023-05-08T10:12:59.966Z,86.50
2023-05-08T10:15:31.157Z,83.57
2023-05-08T10:18:05.462Z,82.90
2023-05-08T10:20:34.744Z,82.55
2023-05-08T10:23:03.954Z,84.38
2023-05-08T10:25:34.573Z,80.43
2023-05-08T10:28:11.070Z,81.57
2023-05-08T10:30:44.371Z,80.82
2023-05-08T10:33:15.460Z,85.47
2023-05-08T10:35:43.479Z,79.80
2023-05-08T10:38:12.254Z,76.40
2023-05-08T10:40:41.850Z,64.07
2023-05-08T10:43:10.622Z,51.53
2023-05-08T10:45:39.228Z,59.97
2023-05-08T10:48:17.323Z,55.67
2023-05-08T10:50:57.838Z,52.93
2023-05-08T10:53:34.633Z,57.70
2023-05-08T10:56:04.196Z,57.08
2023-05-08T10:58:33.482Z,62.22
2023-05-08T11:01:15.590Z,58.53
2023-05-08T11:03:50.534Z,52.83
2023-05-08T11:06:19.681Z,49.65
2023-05-08T11:08:49.636Z,55.40
2023-05-08T11:11:31.487Z,55.85
2023-05-08T11:14:13.366Z,46.72
2023-05-08T11:17:07.893Z,53.00
2023-05-08T11:19:36.825Z,53.15
2023-05-08T11:22:25.684Z,54.00
2023-05-08T11:24:56.207Z,47.80
2023-05-08T11:27:53.392Z,49.58
2023-05-08T11:30:24.006Z,48.90
2023-05-08T11:32:59.460Z,46.72
2023-05-08T11:36:01.750Z,44.20
2023-05-08T11:38:35.913Z,45.40
2023-05-08T11:41:09.310Z,46.30
2023-05-08T11:44:15.011Z,45.13
2023-05-08T11:46:51.004Z,42.83
2023-05-08T11:49:24.676Z,43.85
2023-05-08T11:51:59.524Z,44.10
2023-05-08T11:54:31.052Z,42.95
2023-05-08T11:56:59.602Z,41.50
2023-05-08T11:59:27.498Z,44.47
2023-05-08T12:02:07.637Z,42.63
2023-05-08T12:04:44.372Z,39.15
2023-05-08T12:07:12.287Z,38.63
2023-05-08T12:09:40.165Z,38.27
2023-05-08T12:12:08.020Z,41.45
2023-05-08T12:14:35.922Z,43.00
2023-05-08T12:17:05.085Z,32.08
2023-05-08T12:19:32.883Z,33.95
2023-05-08T12:22:01.529Z,30.43
2023-05-08T12:24:29.360Z,32.97
2023-05-08T12:26:57.115Z,30.55
2023-05-08T12:29:27.325Z,34.42
2023-05-08T12:31:55.452Z,33.05
2023-05-08T12:34:25.194Z,28.50
2023-05-08T12:37:03.284Z,30.80
2023-05-08T12:39:36.651Z,32.70
2023-05-08T12:42:04.616Z,33.53
2023-05-08T12:44:32.358Z,29.65
2023-05-08T12:47:00.288Z,31.60
2023-05-08T12:49:30.878Z,32.40
2023-05-08T12:52:03.328Z,33.13
2023-05-08T12:54:36.086Z,32.50
2023-05-08T12:57:09.815Z,30.33
2023-05-08T12:59:37.693Z,34.37
2023-05-08T13:02:05.581Z,37.80
2023-05-08T13:04:39.310Z,43.40
2023-05-08T13:07:07.606Z,36.58
2023-05-08T13:09:35.437Z,33.65
2023-05-08T13:12:03.469Z,31.17
2023-05-08T13:14:31.351Z,32.55
2023-05-08T13:16:59.779Z,30.73
2023-05-08T13:19:28.387Z,35.97
2023-05-08T13:21:57.547Z,31.02
2023-05-08T13:24:25.794Z,34.33
2023-05-08T13:26:53.588Z,36.05
2023-05-08T13:29:22.040Z,35.50
2023-05-08T13:31:49.807Z,34.53
2023-05-08T13:34:17.612Z,30.67
2023-05-08T13:36:45.410Z,34.20
2023-05-08T13:39:15.392Z,31.42
2023-05-08T13:41:44.434Z,30.20
2023-05-08T13:44:12.164Z,32.08
2023-05-08T13:46:40.003Z,34.00
2023-05-08T13:49:07.710Z,31.43
2023-05-08T13:51:35.621Z,30.95
2023-05-08T13:54:03.345Z,30.38
2023-05-08T13:56:32.389Z,30.02
2023-05-08T13:59:00.166Z,27.52
2023-05-08T14:01:28.502Z,32.30
2023-05-08T14:03:56.503Z,27.60
2023-05-08T14:06:24.333Z,27.10
2023-05-08T14:08:54.442Z,25.27
2023-05-08T14:11:24.018Z,25.00
2023-05-08T14:13:53.416Z,23.93
2023-05-08T14:16:21.614Z,27.15
2023-05-08T14:18:49.254Z,27.95
2023-05-08T14:21:16.968Z,25.45
2023-05-08T14:23:45.068Z,27.88
2023-05-08T14:26:12.956Z,28.60
2023-05-08T14:28:40.793Z,29.13
2023-05-08T14:31:10.048Z,32.22
2023-05-08T14:33:37.896Z,28.20
2023-05-08T14:36:05.955Z,28.77
2023-05-08T14:38:33.720Z,29.17
2023-05-08T14:41:04.265Z,30.50
2023-05-08T14:43:32.748Z,34.22
2023-05-08T14:46:00.722Z,37.78
2023-05-08T14:48:29.768Z,41.72
2023-05-08T14:50:57.581Z,38.53
2023-05-08T14:53:25.563Z,36.65
2023-05-08T14:55:53.590Z,36.92
2023-05-08T14:58:21.537Z,39.72
2023-05-08T15:00:49.156Z,35.60
2023-05-08T15:03:17.107Z,37.20
2023-05-08T15:05:47.205Z,34.00
2023-05-08T15:08:15.088Z,40.78
2023-05-08T15:10:43.348Z,37.00
2023-05-08T15:13:11.124Z,34.53
2023-05-08T15:15:39.022Z,37.70
2023-05-08T15:18:06.818Z,37.35
2023-05-08T15:20:34.655Z,34.03
2023-05-08T15:23:03.814Z,32.03
2023-05-08T15:25:31.510Z,33.28
2023-05-08T15:28:00.815Z,35.87
2023-05-08T15:30:28.948Z,34.33
2023-05-08T15:32:56.700Z,35.05
2023-05-08T15:35:24.499Z,32.83
2023-05-08T15:37:52.262Z,31.50
2023-05-08T15:40:21.470Z,38.70
2023-05-08T15:42:49.098Z,34.72
2023-05-08T15:45:16.944Z,32.00
2023-05-08T15:47:44.630Z,30.17
2023-05-08T15:50:12.568Z,34.42
2023-05-08T15:52:40.360Z,31.33
2023-05-08T15:55:08.443Z,28.85
2023-05-08T15:57:40.710Z,27.17
2023-05-08T16:00:09.834Z,27.38
2023-05-08T16:02:37.650Z,26.38
2023-05-08T16:05:05.759Z,24.03
2023-05-08T16:07:33.593Z,23.58
2023-05-08T16:10:01.281Z,22.50
2023-05-08T16:12:29.064Z,22.02
2023-05-08T16:14:58.321Z,19.92
2023-05-08T16:17:26.263Z,20.33
2023-05-08T16:19:53.998Z,16.70
2023-05-08T16:22:23.119Z,17.45
2023-05-08T16:24:53.859Z,21.77
2023-05-08T16:27:21.801Z,18.10
2023-05-08T16:29:49.605Z,18.87
2023-05-08T16:32:18.745Z,16.35
2023-05-08T16:34:46.529Z,17.25
2023-05-08T16:37:14.524Z,17.60
2023-05-08T16:39:42.303Z,17.60
2023-05-08T16:42:10.021Z,17.53
2023-05-08T16:44:38.190Z,19.33
2023-05-08T16:47:05.980Z,16.92
2023-05-08T16:49:35.302Z,19.92
2023-05-08T16:52:03.031Z,21.55
2023-05-08T16:54:30.809Z,20.87
2023-05-08T16:56:58.499Z,20.40
2023-05-08T16:59:26.218Z,21.50
2023-05-08T17:01:54.694Z,21.70
2023-05-08T17:04:22.378Z,18.25
2023-05-08T17:06:51.454Z,21.83
2023-05-08T17:09:19.125Z,21.95
2023-05-08T17:11:47.057Z,21.20
2023-05-08T17:14:14.797Z,21.75
2023-05-08T17:16:42.573Z,18.90
2023-05-08T17:19:10.404Z,23.17
2023-05-08T17:21:38.147Z,24.02
2023-05-08T17:24:08.047Z,23.33
2023-05-08T17:26:36.148Z,23.60
2023-05-08T17:29:03.937Z,25.80
2023-05-08T17:31:31.786Z,27.17
2023-05-08T17:33:59.864Z,24.42
2023-05-08T17:36:27.589Z,23.85
2023-05-08T17:38:55.340Z,25.48
2023-05-08T17:41:24.485Z,27.73
2023-05-08T17:43:53.351Z,25.77
2023-05-08T17:46:21.284Z,28.95
2023-05-08T17:48:49.149Z,26.73
2023-05-08T17:51:16.897Z,29.73
2023-05-08T17:53:44.714Z,25.65
2023-05-08T17:56:12.564Z,27.97
2023-05-08T17:58:41.721Z,26.55
2023-05-08T18:01:09.444Z,26.17
2023-05-08T18:03:37.244Z,27.73
2023-05-08T18:06:05.085Z,27.65
2023-05-08T18:08:34.297Z,26.97
2023-05-08T18:11:02.016Z,27.02
2023-05-08T18:13:30.532Z,28.73
2023-05-08T18:16:00.053Z,28.50
2023-05-08T18:18:27.926Z,33.67
2023-05-08T18:20:55.657Z,28.37
2023-05-08T18:23:23.332Z,29.63
2023-05-08T18:25:51.457Z,30.27
2023-05-08T18:28:19.181Z,28.45
2023-05-08T18:30:46.877Z,28.38
2023-05-08T18:33:16.050Z,30.57
2023-05-08T18:35:43.803Z,31.98
2023-05-08T18:38:11.511Z,30.50
2023-05-08T18:40:39.397Z,27.65
2023-05-08T18:43:07.088Z,28.15
2023-05-08T18:45:34.847Z,28.73
2023-05-08T18:48:02.748Z,28.85
2023-05-08T18:50:31.864Z,26.50
2023-05-08T18:52:59.668Z,24.70
2023-05-08T18:55:27.960Z,27.38
2023-05-08T18:57:55.775Z,25.63
2023-05-08T19:00:23.582Z,26.40
2023-05-08T19:02:51.462Z,24.92
2023-05-08T19:05:19.519Z,27.73
2023-05-08T19:07:48.677Z,26.38
2023-05-08T19:10:16.692Z,26.53
2023-05-08T19:12:45.481Z,22.25
2023-05-08T19:15:14.560Z,22.67
2023-05-08T19:17:42.595Z,22.63
2023-05-08T19:20:11.575Z,21.85
2023-05-08T19:22:39.650Z,20.83
2023-05-08T19:25:09.784Z,21.73
2023-05-08T19:27:37.498Z,20.23
2023-05-08T19:30:06.606Z,17.20
2023-05-08T19:32:34.445Z,19.48
2023-05-08T19:35:02.693Z,13.10
2023-05-08T19:37:30.478Z,14.45
2023-05-08T19:39:58.244Z,13.45
2023-05-08T19:42:27.411Z,12.98
2023-05-08T19:44:55.109Z,12.05
2023-05-08T19:47:22.873Z,11.90
2023-05-08T19:49:51.061Z,14.48
2023-05-08T19:52:19.750Z,12.65
2023-05-08T19:54:47.523Z,12.07
2023-05-08T19:57:15.314Z,11.93
2023-05-08T19:59:44.410Z,13.37
2023-05-08T20:02:12.147Z,12.77
2023-05-08T20:04:54.407Z,13.48
2023-05-08T20:07:27.695Z,16.20
2023-05-08T20:09:55.504Z,13.88
2023-05-08T20:12:23.267Z,12.83
2023-05-08T20:14:53.345Z,13.98
2023-05-08T20:17:21.316Z,17.63
2023-05-08T20:19:49.048Z,13.10
2023-05-08T20:22:16.905Z,14.65
2023-05-08T20:24:44.713Z,13.90
2023-05-08T20:27:12.513Z,14.90
2023-05-08T20:29:40.543Z,15.95
2023-05-08T20:32:14.387Z,14.10
2023-05-08T20:34:44.051Z,12.93
2023-05-08T20:37:11.953Z,13.30
2023-05-08T20:39:39.882Z,16.13
2023-05-08T20:42:07.570Z,16.13
2023-05-08T20:44:35.477Z,14.95
2023-05-08T20:47:03.175Z,13.95
2023-05-08T20:49:32.302Z,13.23
2023-05-08T20:52:00.152Z,15.48
2023-05-08T20:54:30.002Z,15.15
2023-05-08T20:56:57.827Z,11.80
2023-05-08T20:59:25.785Z,17.20
2023-05-08T21:01:53.573Z,11.43
2023-05-08T21:04:21.343Z,16.13
2023-05-08T21:06:52.032Z,11.70
2023-05-08T21:09:20.173Z,10.32
2023-05-08T21:11:47.959Z,12.80
2023-05-08T21:14:15.832Z,11.00
2023-05-08T21:16:43.591Z,9.18
2023-05-08T21:19:13.896Z,10.40
2023-05-08T21:21:42.063Z,12.23
2023-05-08T21:24:11.192Z,9.93
2023-05-08T21:26:38.946Z,9.83
2023-05-08T21:29:06.892Z,12.35
2023-05-08T21:31:36.091Z,12.65
2023-05-08T21:34:04.336Z,15.38
2023-05-08T21:36:34.031Z,11.98
2023-05-08T21:39:02.180Z,11.73
2023-05-08T21:41:32.905Z,17.95
2023-05-08T21:44:00.607Z,11.02
2023-05-08T21:46:28.386Z,12.20
2023-05-08T21:48:56.226Z,14.43
2023-05-08T21:51:24.067Z,12.70
2023-05-08T21:53:51.755Z,14.35
2023-05-08T21:56:19.458Z,12.00
2023-05-08T21:58:49.059Z,12.18
2023-05-08T22:01:16.811Z,11.77
2023-05-08T22:03:45.017Z,14.27
2023-05-08T22:06:13.032Z,15.77
2023-05-08T22:08:40.759Z,15.43
2023-05-08T22:11:08.644Z,13.07
2023-05-08T22:13:36.506Z,15.13
2023-05-08T22:16:06.450Z,11.90
2023-05-08T22:18:34.178Z,16.48
2023-05-08T22:21:02.171Z,17.75
2023-05-08T22:23:29.909Z,14.93
2023-05-08T22:25:57.586Z,20.73
2023-05-08T22:28:25.352Z,19.93
2023-05-08T22:30:53.088Z,16.02
2023-05-08T22:33:22.110Z,16.60
2023-05-08T22:35:49.805Z,18.00
2023-05-08T22:38:17.562Z,16.63
2023-05-08T22:40:47.684Z,14.67
2023-05-08T22:43:15.597Z,17.27
2023-05-08T22:45:43.406Z,17.63
2023-05-08T22:48:11.228Z,19.52
2023-05-08T22:50:40.497Z,16.75
2023-05-08T22:53:09.389Z,15.77
2023-05-08T22:55:37.288Z,13.95
2023-05-08T22:58:05.216Z,15.80
2023-05-08T23:00:32.978Z,13.50
2023-05-08T23:03:00.791Z,15.60
2023-05-08T23:05:28.562Z,15.27
2023-05-08T23:07:57.769Z,14.63
2023-05-08T23:10:25.808Z,15.10
2023-05-08T23:12:53.611Z,15.00
2023-05-08T23:15:22.030Z,14.15
2023-05-08T23:17:50.663Z,14.37
2023-05-08T23:20:18.699Z,12.05
2023-05-08T23:22:46.453Z,17.60
2023-05-08T23:25:15.752Z,13.68
2023-05-08T23:27:43.725Z,17.55
2023-05-08T23:30:13.148Z,16.73
2023-05-08T23:32:41.322Z,15.68
2023-05-08T23:35:09.508Z,14.38
2023-05-08T23:37:37.506Z,17.50
2023-05-08T23:40:07.058Z,20.27
2023-05-08T23:42:37.181Z,13.83
2023-05-08T23:45:06.259Z,15.90
2023-05-08T23:47:34.201Z,16.13
2023-05-08T23:50:02.017Z,16.48
2023-05-08T23:52:29.973Z,17.77
2023-05-08T23:54:57.982Z,17.97
2023-05-08T23:57:26.280Z,19.70
2023-05-08T23:59:55.417Z,20.73
